Time;durP1;ratioP1;P1;durP2;ratioP2;P2;SDS_P1;SDS_P2;PMS_P1;PMS_P2;Temp;Humidity;BMP_temperature;BMP_pressure;BME280_temperature;BME280_humidity;BME280_pressure;Samples;Min_cycle;Max_cycle;Signal;HPM_P1;HPM_P2
2022/12/20 00:01:04;;;;;;;10.02;2.35;;;12.60;99.90;;;;;;5034213;28;20057;-51
2022/12/20 00:03:31;;;;;;;11.18;2.72;;;12.60;99.90;;;;;;5035755;28;20052;-45
2022/12/20 00:05:58;;;;;;;16.88;3.72;;;12.50;99.90;;;;;;5035186;28;20037;-53
2022/12/20 00:08:24;;;;;;;12.95;2.67;;;12.50;99.90;;;;;;5052746;28;20468;-46
2022/12/20 00:10:51;;;;;;;9.35;2.60;;;12.60;99.90;;;;;;5055569;28;20120;-47
2022/12/20 00:13:18;;;;;;;11.40;2.58;;;12.60;99.90;;;;;;5055387;28;20037;-46
2022/12/20 00:15:44;;;;;;;14.25;2.90;;;12.60;99.90;;;;;;5055375;28;20102;-48
2022/12/20 00:18:11;;;;;;;12.90;2.70;;;12.60;99.90;;;;;;5049042;28;20511;-46
2022/12/20 00:20:38;;;;;;;10.55;2.70;;;12.50;99.90;;;;;;5055100;28;20098;-47
2022/12/20 00:23:05;;;;;;;12.82;2.83;;;12.50;99.90;;;;;;5055700;28;20083;-47
2022/12/20 00:25:31;;;;;;;13.57;3.03;;;12.60;99.90;;;;;;5049513;28;20455;-49
2022/12/20 00:27:59;;;;;;;11.63;2.92;;;12.60;99.90;;;;;;5047038;28;20041;-51
2022/12/20 00:30:26;;;;;;;13.93;3.25;;;12.50;99.90;;;;;;5050083;28;20040;-50
2022/12/20 00:32:53;;;;;;;13.10;2.70;;;12.50;99.90;;;;;;5046146;28;20068;-45
2022/12/20 00:35:20;;;;;;;10.38;2.35;;;12.50;99.90;;;;;;5033603;28;20103;-50
2022/12/20 00:37:46;;;;;;;9.05;2.08;;;12.50;99.90;;;;;;5034340;28;20133;-47
2022/12/20 00:40:13;;;;;;;16.02;2.67;;;12.50;99.90;;;;;;5041160;28;20187;-48
2022/12/20 00:42:40;;;;;;;10.68;2.40;;;12.50;99.90;;;;;;5039218;28;20049;-47
2022/12/20 00:45:06;;;;;;;11.27;2.25;;;12.50;99.90;;;;;;5052865;28;20102;-51
2022/12/20 00:47:34;;;;;;;9.75;2.10;;;12.50;99.90;;;;;;5053532;28;20045;-47
2022/12/20 00:50:00;;;;;;;9.30;1.80;;;12.50;99.90;;;;;;5051896;28;20088;-51
2022/12/20 00:52:27;;;;;;;7.68;1.73;;;12.50;99.90;;;;;;5054659;28;20041;-48
2022/12/20 00:54:54;;;;;;;9.10;2.10;;;12.50;99.90;;;;;;5055420;28;20045;-52
2022/12/20 00:57:20;;;;;;;6.07;1.30;;;12.50;99.90;;;;;;5054274;28;20102;-48
2022/12/20 00:59:47;;;;;;;7.22;1.55;;;12.50;99.90;;;;;;5053136;28;20072;-50
2022/12/20 01:02:14;;;;;;;6.68;1.60;;;12.50;99.90;;;;;;5050517;28;20549;-52
2022/12/20 01:04:41;;;;;;;6.13;1.60;;;12.50;99.90;;;;;;5049247;28;20474;-45
2022/12/20 01:07:08;;;;;;;10.93;2.10;;;12.50;99.90;;;;;;5051840;28;20118;-46
2022/12/20 01:09:35;;;;;;;14.38;3.05;;;12.50;99.90;;;;;;5052443;28;20041;-49
2022/12/20 01:12:02;;;;;;;9.50;2.10;;;12.60;99.90;;;;;;5054515;28;20044;-49
2022/12/20 01:14:29;;;;;;;10.35;2.33;;;12.60;99.90;;;;;;5052966;28;20036;-47
2022/12/20 01:16:55;;;;;;;8.82;2.40;;;12.60;99.90;;;;;;5044493;28;20092;-47
2022/12/20 01:19:23;;;;;;;11.10;2.45;;;12.60;99.90;;;;;;5034344;28;20045;-48
2022/12/20 01:21:50;;;;;;;9.35;2.65;;;12.60;99.90;;;;;;5034151;28;20087;-48
2022/12/20 01:24:17;;;;;;;11.25;2.70;;;12.60;99.90;;;;;;5050000;28;20041;-49
2022/12/20 01:26:43;;;;;;;7.82;2.35;;;12.60;99.90;;;;;;5043439;28;20050;-49
2022/12/20 01:29:12;;;;;;;12.75;2.30;;;12.60;99.90;;;;;;5037794;28;20443;-53
2022/12/20 01:31:40;;;;;;;9.10;2.30;;;12.60;99.90;;;;;;5054157;28;20048;-52
2022/12/20 01:34:08;;;;;;;14.68;2.53;;;12.60;99.90;;;;;;5048995;28;20476;-52
2022/12/20 01:36:37;;;;;;;7.82;2.20;;;12.60;99.90;;;;;;5045221;28;20512;-47
2022/12/20 01:39:03;;;;;;;12.07;2.45;;;12.60;99.90;;;;;;5043370;28;20045;-53
2022/12/20 01:41:30;;;;;;;8.07;2.15;;;12.60;99.90;;;;;;5041551;28;20046;-46
2022/12/20 01:43:57;;;;;;;9.55;2.15;;;12.60;99.90;;;;;;5032716;28;20051;-49
2022/12/20 01:46:23;;;;;;;9.85;2.55;;;12.60;99.90;;;;;;5035026;28;20404;-51
2022/12/20 01:48:50;;;;;;;11.75;2.55;;;12.60;99.90;;;;;;5034038;28;20069;-53
2022/12/20 01:51:17;;;;;;;9.07;2.40;;;12.60;99.90;;;;;;5037582;28;20049;-54
2022/12/20 01:53:44;;;;;;;10.80;2.80;;;12.60;99.90;;;;;;5046963;28;20065;-49
2022/12/20 01:56:11;;;;;;;10.15;2.67;;;12.60;99.90;;;;;;5053320;28;20553;-46
2022/12/20 01:58:37;;;;;;;10.02;3.00;;;12.70;99.90;;;;;;5035748;28;20048;-52
2022/12/20 02:01:04;;;;;;;15.32;2.90;;;12.60;99.90;;;;;;5052013;28;20044;-51
2022/12/20 02:03:31;;;;;;;13.43;2.97;;;12.70;99.90;;;;;;5052668;28;20037;-52
2022/12/20 02:05:58;;;;;;;17.08;2.97;;;12.70;99.90;;;;;;5033162;28;20041;-49
2022/12/20 02:08:25;;;;;;;9.95;2.10;;;12.70;99.90;;;;;;5033373;28;20050;-51
2022/12/20 02:10:52;;;;;;;10.63;2.75;;;12.70;99.90;;;;;;5032137;28;20048;-49
2022/12/20 02:13:18;;;;;;;13.45;3.00;;;12.70;99.90;;;;;;5049819;28;20037;-50
2022/12/20 02:15:47;;;;;;;11.43;2.92;;;12.70;99.90;;;;;;5050116;28;20091;-48
2022/12/20 02:18:14;;;;;;;12.40;2.90;;;12.70;99.90;;;;;;5051706;28;20060;-46
2022/12/20 02:20:41;;;;;;;13.35;2.67;;;12.70;99.90;;;;;;5035373;28;20144;-48
2022/12/20 02:23:08;;;;;;;8.20;2.40;;;12.70;99.90;;;;;;5038701;28;20044;-52
2022/12/20 02:25:34;;;;;;;8.63;2.10;;;12.70;99.90;;;;;;5044990;28;20044;-51
2022/12/20 02:28:01;;;;;;;11.25;2.42;;;12.70;99.90;;;;;;5048328;28;20045;-50
2022/12/20 02:30:28;;;;;;;8.50;2.00;;;12.70;99.90;;;;;;5031950;28;20037;-52
2022/12/20 02:32:56;;;;;;;8.30;2.05;;;12.70;99.90;;;;;;5031481;28;20455;-51
2022/12/20 02:35:22;;;;;;;9.23;2.40;;;12.80;99.90;;;;;;5032622;28;20083;-50
2022/12/20 02:37:50;;;;;;;8.93;1.85;;;12.80;99.90;;;;;;5031721;28;20537;-54
2022/12/20 02:40:18;;;;;;;9.13;1.83;;;12.80;99.90;;;;;;5031419;28;20137;-51
2022/12/20 02:42:45;;;;;;;6.75;1.70;;;12.80;99.90;;;;;;5037111;28;20055;-48
2022/12/20 02:45:14;;;;;;;7.40;2.00;;;12.80;99.90;;;;;;5040549;28;20061;-46
2022/12/20 02:47:42;;;;;;;6.57;1.67;;;12.70;99.90;;;;;;5046354;28;20043;-51
2022/12/20 02:50:08;;;;;;;5.95;1.48;;;12.80;99.90;;;;;;5052420;28;20041;-51
2022/12/20 02:52:35;;;;;;;6.35;1.63;;;12.70;99.90;;;;;;5052643;28;20519;-50
2022/12/20 02:55:02;;;;;;;6.05;1.70;;;12.70;99.90;;;;;;5052441;28;20904;-53
2022/12/20 02:57:31;;;;;;;8.13;1.90;;;12.70;99.90;;;;;;5036058;28;20045;-49
2022/12/20 02:59:58;;;;;;;8.02;2.20;;;12.70;99.90;;;;;;5030961;28;20044;-48
2022/12/20 03:02:27;;;;;;;7.97;2.15;;;12.70;99.90;;;;;;5031047;28;20045;-47
2022/12/20 03:04:55;;;;;;;8.43;2.80;;;12.60;99.90;;;;;;5034009;28;20362;-49
2022/12/20 03:07:22;;;;;;;10.32;2.47;;;12.60;99.90;;;;;;5030746;28;20416;-52
2022/12/20 03:09:49;;;;;;;8.02;2.50;;;12.60;99.90;;;;;;5030700;28;20107;-48
2022/12/20 03:12:16;;;;;;;9.90;2.60;;;12.60;99.90;;;;;;5032281;28;20045;-49
2022/12/20 03:14:43;;;;;;;10.27;2.40;;;12.60;99.90;;;;;;5040410;28;20047;-53
2022/12/20 03:17:12;;;;;;;7.45;2.45;;;12.60;99.90;;;;;;5050429;28;20045;-50
2022/12/20 03:19:39;;;;;;;14.45;2.45;;;12.60;99.90;;;;;;5040618;28;20053;-51
2022/12/20 03:22:06;;;;;;;10.40;2.75;;;12.60;99.90;;;;;;5036450;28;20041;-49
2022/12/20 03:24:33;;;;;;;12.55;2.72;;;12.60;99.90;;;;;;5048810;28;20053;-52
2022/12/20 03:27:04;;;;;;;12.52;2.33;;;12.60;99.90;;;;;;5050527;28;20144;-51
2022/12/20 03:29:30;;;;;;;10.65;2.40;;;12.60;99.90;;;;;;5040556;28;20412;-48
2022/12/20 03:31:58;;;;;;;11.00;2.63;;;12.60;99.90;;;;;;5030507;28;20050;-51
2022/12/20 03:34:25;;;;;;;7.70;2.67;;;12.60;99.90;;;;;;5046723;28;20046;-51
2022/12/20 03:36:52;;;;;;;12.13;3.33;;;12.60;99.90;;;;;;5034835;28;20043;-51
2022/12/20 03:39:19;;;;;;;14.40;2.75;;;12.60;99.90;;;;;;5052957;28;20064;-49
2022/12/20 03:41:49;;;;;;;11.02;2.90;;;12.50;99.90;;;;;;5044356;28;20056;-53
2022/12/20 03:44:17;;;;;;;12.23;2.75;;;12.60;99.90;;;;;;5069612;28;20426;-51
2022/12/20 03:46:44;;;;;;;10.15;2.90;;;12.60;99.90;;;;;;5056401;28;20139;-50
2022/12/20 03:49:10;;;;;;;11.20;2.70;;;12.60;99.90;;;;;;5063388;28;20442;-49
2022/12/20 03:51:44;;;;;;;11.93;3.05;;;12.60;99.90;;;;;;5056858;28;20041;-54
2022/12/20 03:54:11;;;;;;;11.55;2.35;;;12.60;99.90;;;;;;5054514;28;20040;-50
2022/12/20 03:57:07;;;;;;;8.95;2.50;;;12.50;99.90;;;;;;5058661;28;20562;-49
2022/12/20 03:59:34;;;;;;;14.48;2.97;;;12.50;99.90;;;;;;5069466;28;20514;-46
2022/12/20 04:02:03;;;;;;;12.95;2.83;;;12.50;99.90;;;;;;5073405;28;20127;-48
2022/12/20 04:04:30;;;;;;;14.45;3.00;;;12.50;99.90;;;;;;5047570;28;20041;-51
2022/12/20 04:06:57;;;;;;;12.82;3.00;;;12.50;99.90;;;;;;5048141;28;21607;-45
2022/12/20 04:09:24;;;;;;;11.40;3.40;;;12.50;99.90;;;;;;5053457;28;20387;-50
2022/12/20 04:11:57;;;;;;;14.50;3.10;;;12.50;99.90;;;;;;5053311;28;20056;-48
2022/12/20 04:14:26;;;;;;;16.50;3.03;;;12.50;99.90;;;;;;5053072;28;20545;-49
2022/12/20 04:16:52;;;;;;;12.00;3.13;;;12.50;99.90;;;;;;5053262;28;20048;-49
2022/12/20 04:19:22;;;;;;;12.30;2.78;;;12.50;99.90;;;;;;5067874;28;20424;-46
2022/12/20 04:21:49;;;;;;;16.55;3.70;;;12.50;99.90;;;;;;5053373;28;20068;-51
2022/12/20 04:24:18;;;;;;;12.30;3.10;;;12.50;99.90;;;;;;5053878;28;20053;-52
2022/12/20 04:26:53;;;;;;;14.45;3.60;;;12.50;99.90;;;;;;5052034;28;20139;-50
2022/12/20 04:29:20;;;;;;;13.38;3.30;;;12.50;99.90;;;;;;5054167;28;20073;-51
2022/12/20 04:31:47;;;;;;;13.93;3.25;;;12.50;99.90;;;;;;5049315;28;20076;-47
2022/12/20 04:34:14;;;;;;;14.52;2.88;;;12.40;99.90;;;;;;5046667;28;20094;-52
2022/12/20 04:36:41;;;;;;;13.57;3.13;;;12.40;99.90;;;;;;5038313;28;20563;-46
2022/12/20 04:39:14;;;;;;;14.70;3.15;;;12.40;99.90;;;;;;5035778;28;20051;-45
2022/12/20 04:41:58;;;;;;;11.48;3.42;;;12.40;99.90;;;;;;5033886;28;20060;-48
2022/12/20 04:44:25;;;;;;;15.30;3.63;;;12.30;99.90;;;;;;5041008;28;20053;-47
2022/12/20 04:46:52;;;;;;;15.13;3.42;;;12.30;99.90;;;;;;5034721;28;20053;-49
2022/12/20 04:49:19;;;;;;;8.38;3.03;;;12.40;99.90;;;;;;5045103;28;20043;-48
2022/12/20 04:51:46;;;;;;;14.18;3.97;;;12.40;99.90;;;;;;5037967;28;20517;-45
2022/12/20 04:54:14;;;;;;;12.55;3.53;;;12.30;99.90;;;;;;5049002;28;20056;-45
2022/12/20 04:56:48;;;;;;;15.20;4.10;;;12.40;99.90;;;;;;5040039;28;20472;-48
2022/12/20 04:59:19;;;;;;;15.07;3.35;;;12.40;99.90;;;;;;5033222;28;20041;-47
2022/12/20 05:01:48;;;;;;;15.30;4.32;;;12.40;99.90;;;;;;5019095;28;20049;-47
2022/12/20 05:04:28;;;;;;;16.40;4.07;;;12.40;99.90;;;;;;5033314;28;20084;-54
2022/12/20 05:07:03;;;;;;;18.63;4.18;;;12.40;99.90;;;;;;5032314;28;20057;-54
2022/12/20 05:09:30;;;;;;;18.60;4.30;;;12.40;99.90;;;;;;5033325;28;20470;-54
2022/12/20 05:11:57;;;;;;;16.55;4.15;;;12.40;99.90;;;;;;5032810;28;20041;-53
2022/12/20 05:14:24;;;;;;;15.00;4.38;;;12.40;99.90;;;;;;5033072;28;20369;-52
2022/12/20 05:16:51;;;;;;;15.27;3.72;;;12.40;99.90;;;;;;5038140;28;20049;-45
2022/12/20 05:19:17;;;;;;;14.55;3.72;;;12.40;99.90;;;;;;5054038;28;20045;-49
2022/12/20 05:27:27;;;;;;;12.95;3.38;;;12.40;99.90;;;;;;5051078;28;20056;-47
2022/12/20 05:29:54;;;;;;;10.25;2.90;;;12.40;99.90;;;;;;5052378;28;20045;-47
2022/12/20 05:32:20;;;;;;;10.45;3.25;;;12.40;99.90;;;;;;5038797;28;20144;-54
2022/12/20 05:34:49;;;;;;;9.65;3.10;;;12.40;99.90;;;;;;5038644;28;20042;-51
2022/12/20 05:37:18;;;;;;;12.60;3.35;;;12.40;99.90;;;;;;5032299;28;20077;-48
2022/12/20 05:39:45;;;;;;;16.63;3.25;;;12.40;99.90;;;;;;5021469;28;20048;-46
2022/12/20 05:42:17;;;;;;;9.55;3.30;;;12.40;99.90;;;;;;5033376;28;20475;-52
2022/12/20 05:44:48;;;;;;;14.93;3.40;;;12.40;99.90;;;;;;5043672;28;20103;-54
2022/12/20 05:47:15;;;;;;;10.15;3.10;;;12.40;99.90;;;;;;5035289;28;20038;-51
2022/12/20 05:49:42;;;;;;;15.77;4.03;;;12.40;99.90;;;;;;5044309;28;20087;-48
2022/12/20 05:52:09;;;;;;;13.68;3.42;;;12.40;99.90;;;;;;5048983;28;20475;-48
2022/12/20 05:54:39;;;;;;;11.95;3.30;;;12.50;99.90;;;;;;5047591;28;20093;-48
2022/12/20 05:57:10;;;;;;;8.50;2.67;;;12.50;99.90;;;;;;5031251;28;20480;-48
2022/12/20 05:59:39;;;;;;;9.55;2.58;;;12.50;99.90;;;;;;5032460;28;20080;-49
2022/12/20 06:02:13;;;;;;;11.95;2.67;;;12.50;99.90;;;;;;5044376;28;20365;-51
2022/12/20 06:04:41;;;;;;;12.23;3.15;;;12.50;99.90;;;;;;5047017;28;20136;-47
2022/12/20 06:07:14;;;;;;;8.10;2.53;;;12.50;99.90;;;;;;5048558;28;20083;-51
2022/12/20 06:09:43;;;;;;;11.10;2.75;;;12.50;99.90;;;;;;5033195;28;20436;-51
2022/12/20 06:12:14;;;;;;;12.50;2.90;;;12.50;99.90;;;;;;5047095;28;20044;-48
2022/12/20 06:14:41;;;;;;;12.13;2.88;;;12.50;99.90;;;;;;5045992;28;20045;-46
2022/12/20 06:17:11;;;;;;;12.00;2.85;;;12.50;99.90;;;;;;5048570;28;20452;-49
2022/12/20 06:19:40;;;;;;;7.35;2.50;;;12.50;99.90;;;;;;5046189;28;20392;-46
2022/12/20 06:22:08;;;;;;;12.05;3.50;;;12.50;99.90;;;;;;5040364;28;20114;-50
2022/12/20 06:24:45;;;;;;;9.98;3.00;;;12.50;99.90;;;;;;5049542;28;20437;-46
2022/12/20 06:27:17;;;;;;;12.90;3.45;;;12.50;99.90;;;;;;5043496;28;20527;-47
2022/12/20 06:29:53;;;;;;;15.95;3.42;;;12.50;99.90;;;;;;5033492;28;20060;-50
2022/12/20 06:32:24;;;;;;;18.67;4.05;;;12.50;99.90;;;;;;5032023;28;20045;-52
2022/12/20 06:34:51;;;;;;;11.48;3.03;;;12.50;99.90;;;;;;5038781;28;20069;-50
2022/12/20 06:37:18;;;;;;;18.30;3.38;;;12.50;99.90;;;;;;5050298;28;20407;-48
2022/12/20 06:39:45;;;;;;;21.70;3.47;;;12.50;99.90;;;;;;5031382;28;20049;-49
2022/12/20 06:42:13;;;;;;;17.13;4.13;;;12.50;99.90;;;;;;5032710;28;20392;-50
2022/12/20 06:44:42;;;;;;;14.52;3.00;;;12.60;99.90;;;;;;5050535;28;20443;-46
2022/12/20 06:47:09;;;;;;;13.05;3.67;;;12.50;99.90;;;;;;5037384;28;20076;-49
2022/12/20 06:49:36;;;;;;;15.85;3.35;;;12.50;99.90;;;;;;5045948;28;20573;-46
2022/12/20 06:52:10;;;;;;;11.32;2.90;;;12.50;99.90;;;;;;5049140;28;20110;-46
2022/12/20 06:54:48;;;;;;;15.57;3.30;;;12.50;99.90;;;;;;5035437;28;20055;-50
2022/12/20 06:57:15;;;;;;;11.40;2.70;;;12.50;99.90;;;;;;5044510;28;20048;-52
2022/12/20 06:59:45;;;;;;;13.23;3.28;;;12.40;99.90;;;;;;5049273;28;20045;-46
2022/12/20 07:02:12;;;;;;;18.83;3.40;;;12.40;99.90;;;;;;5038270;28;20093;-46
2022/12/20 07:04:39;;;;;;;16.17;3.75;;;12.40;99.90;;;;;;5039265;28;20038;-46
2022/12/20 07:07:06;;;;;;;19.63;3.33;;;12.40;99.90;;;;;;5037053;28;20595;-51
2022/12/20 07:09:32;;;;;;;18.73;3.45;;;12.40;99.90;;;;;;5039810;28;20467;-48
2022/12/20 07:11:59;;;;;;;13.35;2.92;;;12.40;99.90;;;;;;5046522;28;20037;-49
2022/12/20 07:14:26;;;;;;;12.70;2.97;;;12.40;99.90;;;;;;5040694;28;20036;-47
2022/12/20 07:16:53;;;;;;;13.88;3.33;;;12.40;99.90;;;;;;5042892;28;20394;-48
2022/12/20 07:19:21;;;;;;;8.90;2.00;;;12.40;99.90;;;;;;5047022;28;20503;-48
2022/12/20 07:21:47;;;;;;;3.53;1.02;;;12.40;99.90;;;;;;5034340;28;20424;-52
2022/12/20 07:24:14;;;;;;;2.60;0.60;;;12.30;99.90;;;;;;5047277;28;20072;-49
2022/12/20 07:26:41;;;;;;;1.90;0.35;;;12.20;99.90;;;;;;5039786;28;20037;-45
2022/12/20 07:29:09;;;;;;;1.42;0.30;;;12.10;99.90;;;;;;5032818;28;20048;-54
2022/12/20 07:31:41;;;;;;;1.98;0.40;;;12.00;99.90;;;;;;5036355;28;20041;-50
2022/12/20 07:34:08;;;;;;;1.60;0.40;;;11.90;99.90;;;;;;5032316;28;20048;-50
2022/12/20 07:36:34;;;;;;;1.90;0.47;;;11.90;99.90;;;;;;5036978;28;20382;-46
2022/12/20 07:39:02;;;;;;;1.42;0.47;;;11.90;99.90;;;;;;5044374;28;20051;-52
2022/12/20 07:41:29;;;;;;;1.15;0.35;;;11.80;99.90;;;;;;5031473;28;20053;-49
2022/12/20 07:43:58;;;;;;;4.03;0.50;;;11.80;99.90;;;;;;5031638;28;20104;-49
2022/12/20 07:46:25;;;;;;;0.90;0.30;;;11.70;99.90;;;;;;5038653;28;20103;-54
2022/12/20 07:48:52;;;;;;;1.10;0.50;;;11.70;99.90;;;;;;5041392;28;20056;-54
2022/12/20 07:51:18;;;;;;;0.70;0.30;;;11.60;99.90;;;;;;5034376;28;20045;-49
2022/12/20 07:53:45;;;;;;;2.40;0.40;;;11.60;99.90;;;;;;5043922;28;20052;-50
2022/12/20 07:56:12;;;;;;;1.55;0.25;;;11.60;99.90;;;;;;5044685;28;20038;-48
2022/12/20 07:58:39;;;;;;;1.10;0.30;;;11.60;99.90;;;;;;5037730;28;20038;-48
2022/12/20 08:01:06;;;;;;;1.00;0.50;;;11.50;99.90;;;;;;5044983;28;20040;-48
2022/12/20 08:03:32;;;;;;;0.82;0.40;;;11.40;99.90;;;;;;5038522;28;20056;-52
2022/12/20 08:06:02;;;;;;;0.60;0.20;;;11.40;99.90;;;;;;5041292;28;20041;-53
2022/12/20 08:08:29;;;;;;;2.08;0.60;;;11.30;99.90;;;;;;5045880;28;20057;-46
2022/12/20 08:10:56;;;;;;;1.35;0.30;;;11.30;99.90;;;;;;5047137;28;20052;-49
2022/12/20 08:13:23;;;;;;;0.70;0.30;;;11.20;99.90;;;;;;5038970;28;20037;-48
2022/12/20 08:15:49;;;;;;;1.00;0.30;;;11.20;99.90;;;;;;5045997;28;20376;-46
2022/12/20 08:18:16;;;;;;;1.10;0.32;;;11.10;99.90;;;;;;5038312;28;20045;-54
2022/12/20 08:20:43;;;;;;;3.45;0.30;;;11.10;99.90;;;;;;5046682;28;20095;-50
2022/12/20 08:23:09;;;;;;;1.92;0.82;;;11.00;99.90;;;;;;5041771;28;20396;-44
2022/12/20 08:25:36;;;;;;;1.15;0.30;;;11.00;99.90;;;;;;5052826;28;20068;-49
2022/12/20 08:28:07;;;;;;;2.97;0.73;;;10.90;99.90;;;;;;5040970;28;20040;-48
2022/12/20 08:30:34;;;;;;;1.52;0.40;;;10.90;99.90;;;;;;5045032;28;20037;-49
2022/12/20 08:33:01;;;;;;;1.27;0.50;;;10.90;99.90;;;;;;5042577;28;20045;-47
2022/12/20 08:35:28;;;;;;;5.18;0.50;;;10.80;99.90;;;;;;5040640;28;20045;-52
2022/12/20 08:37:55;;;;;;;1.83;0.50;;;10.80;99.90;;;;;;5043170;28;20128;-48
2022/12/20 08:40:22;;;;;;;0.73;0.28;;;10.70;99.90;;;;;;5052106;28;20061;-48
2022/12/20 08:42:49;;;;;;;2.28;0.40;;;10.70;99.90;;;;;;5041767;28;20088;-51
2022/12/20 08:45:17;;;;;;;0.95;0.40;;;10.70;99.90;;;;;;5044514;28;20053;-53
2022/12/20 08:47:44;;;;;;;3.20;0.50;;;10.60;99.90;;;;;;5036151;28;20120;-51
2022/12/20 08:50:12;;;;;;;1.67;0.47;;;10.60;99.90;;;;;;5046934;28;20075;-50
2022/12/20 08:52:39;;;;;;;6.20;1.25;;;10.60;99.90;;;;;;5046287;28;20044;-48
2022/12/20 08:55:06;;;;;;;4.00;0.73;;;10.60;99.90;;;;;;5048346;28;20441;-48
2022/12/20 08:57:34;;;;;;;4.15;0.90;;;10.50;99.90;;;;;;5048441;28;20036;-47
2022/12/20 09:00:01;;;;;;;2.50;0.50;;;10.50;99.90;;;;;;5039082;28;20041;-50
2022/12/20 09:02:28;;;;;;;1.42;0.40;;;10.40;99.90;;;;;;5052441;28;20072;-50
2022/12/20 09:04:55;;;;;;;3.30;0.40;;;10.40;99.90;;;;;;5040295;28;20064;-48
2022/12/20 09:07:22;;;;;;;3.35;0.90;;;10.40;99.90;;;;;;5053760;28;20119;-49
2022/12/20 09:09:49;;;;;;;3.33;0.82;;;10.40;99.90;;;;;;5044253;28;20029;-50
2022/12/20 09:12:15;;;;;;;4.03;0.60;;;10.40;99.90;;;;;;5041079;28;20056;-47
2022/12/20 09:14:42;;;;;;;3.20;0.70;;;10.40;99.90;;;;;;5044209;28;20052;-53
2022/12/20 09:17:09;;;;;;;6.75;0.77;;;10.40;99.90;;;;;;5041558;28;20041;-52
2022/12/20 09:19:36;;;;;;;3.88;0.77;;;10.40;99.90;;;;;;5047477;28;20037;-53
2022/12/20 09:22:03;;;;;;;3.80;0.80;;;10.40;99.90;;;;;;5043604;28;20091;-54
2022/12/20 09:24:30;;;;;;;2.97;0.73;;;10.40;99.90;;;;;;5038181;28;20552;-51
2022/12/20 09:26:57;;;;;;;3.97;0.90;;;10.40;99.90;;;;;;5044218;28;20046;-49
2022/12/20 09:29:23;;;;;;;5.55;0.88;;;10.40;99.90;;;;;;5040488;28;20049;-45
2022/12/20 09:32:00;;;;;;;5.75;1.17;;;10.40;99.90;;;;;;5039611;28;20113;-51
2022/12/20 09:34:26;;;;;;;5.75;0.90;;;10.30;99.90;;;;;;5039617;28;20094;-46
2022/12/20 09:36:54;;;;;;;3.88;0.90;;;10.30;99.90;;;;;;5041356;28;20125;-46
2022/12/20 09:39:20;;;;;;;6.07;0.93;;;10.30;99.90;;;;;;5044691;28;20043;-51
2022/12/20 09:41:47;;;;;;;5.15;1.90;;;10.30;99.90;;;;;;5049520;28;20033;-49
2022/12/20 09:44:14;;;;;;;4.30;1.02;;;10.30;99.90;;;;;;5048074;28;21180;-45
2022/12/20 09:46:41;;;;;;;5.13;1.00;;;10.30;99.90;;;;;;5043579;28;20045;-51
2022/12/20 09:49:09;;;;;;;6.68;1.20;;;10.30;99.90;;;;;;5037335;28;20083;-47
2022/12/20 09:51:36;;;;;;;6.00;1.02;;;10.30;99.90;;;;;;5040817;28;20388;-49
2022/12/20 09:54:02;;;;;;;4.68;1.10;;;10.20;99.90;;;;;;5040314;28;20139;-47
2022/12/20 09:56:29;;;;;;;6.07;0.90;;;10.20;99.90;;;;;;5040175;28;20445;-46
2022/12/20 09:58:56;;;;;;;6.93;1.17;;;10.20;99.90;;;;;;5039590;28;20041;-51
2022/12/20 10:01:23;;;;;;;4.55;0.90;;;10.10;99.90;;;;;;5040835;28;20045;-46
2022/12/20 10:03:52;;;;;;;5.38;1.02;;;10.10;99.90;;;;;;5044257;28;20037;-49
2022/12/20 10:06:19;;;;;;;5.20;0.88;;;10.10;99.90;;;;;;5041719;28;20041;-46
2022/12/20 10:08:46;;;;;;;4.20;1.00;;;10.10;99.90;;;;;;5048265;28;20044;-46
2022/12/20 10:11:13;;;;;;;8.32;1.20;;;10.10;99.90;;;;;;5046613;28;20488;-50
2022/12/20 10:13:40;;;;;;;5.85;1.25;;;10.10;99.90;;;;;;5038257;28;20404;-50
2022/12/20 10:16:07;;;;;;;7.45;1.52;;;10.10;99.90;;;;;;5041265;28;21389;-48
2022/12/20 10:18:34;;;;;;;4.65;1.48;;;10.00;99.90;;;;;;5029955;28;20094;-48
2022/12/20 10:21:00;;;;;;;7.45;1.13;;;10.00;99.90;;;;;;5046147;28;20039;-48
2022/12/20 10:23:27;;;;;;;6.28;1.10;;;10.00;99.90;;;;;;5048325;28;20204;-50
2022/12/20 10:25:59;;;;;;;6.75;1.20;;;10.00;99.90;;;;;;5045407;28;20064;-52
2022/12/20 10:28:26;;;;;;;6.70;1.48;;;10.00;99.90;;;;;;5059997;28;20052;-46
2022/12/20 10:30:52;;;;;;;6.22;1.30;;;10.00;99.90;;;;;;5034647;28;20492;-48
2022/12/20 10:33:19;;;;;;;5.70;1.27;;;10.00;99.90;;;;;;5039353;28;20030;-50
2022/12/20 10:35:46;;;;;;;11.52;1.65;;;10.00;99.90;;;;;;5035593;28;20124;-52
2022/12/20 10:38:13;;;;;;;7.25;1.38;;;10.00;99.90;;;;;;5042971;28;20123;-52
2022/12/20 10:40:40;;;;;;;5.93;1.25;;;9.90;99.90;;;;;;5052137;28;20068;-48
2022/12/20 10:43:26;;;;;;;7.13;1.75;;;9.90;99.90;;;;;;5034479;28;20095;-50
2022/12/20 10:45:53;;;;;;;9.18;1.55;;;9.90;99.90;;;;;;5051895;28;20079;-53
2022/12/20 10:48:20;;;;;;;8.48;1.52;;;9.90;99.90;;;;;;5053711;28;20033;-47
2022/12/20 10:50:46;;;;;;;8.40;1.25;;;10.00;99.90;;;;;;5041124;28;20075;-52
2022/12/20 10:53:13;;;;;;;6.75;1.52;;;10.00;99.90;;;;;;5043657;28;20182;-51
2022/12/20 10:55:40;;;;;;;12.07;2.10;;;10.00;99.90;;;;;;5043986;28;20052;-50
2022/12/20 10:58:07;;;;;;;9.30;1.73;;;10.00;99.90;;;;;;5049476;28;20103;-45
2022/12/20 11:00:33;;;;;;;6.28;1.65;;;10.00;99.90;;;;;;5037307;28;20615;-50
2022/12/20 11:03:00;;;;;;;8.98;1.70;;;10.00;99.90;;;;;;5040582;28;20045;-49
2022/12/20 11:05:27;;;;;;;12.35;1.60;;;10.00;99.90;;;;;;5044653;28;20102;-49
2022/12/20 11:07:54;;;;;;;13.77;1.90;;;10.00;99.90;;;;;;5041606;28;20210;-45
2022/12/20 11:10:41;;;;;;;12.80;1.98;;;10.10;99.90;;;;;;5042873;28;20109;-50
2022/12/20 11:13:08;;;;;;;9.52;2.00;;;10.10;99.90;;;;;;5035122;28;20033;-51
2022/12/20 11:15:35;;;;;;;12.18;2.25;;;10.10;99.90;;;;;;5041456;28;20041;-47
2022/12/20 11:18:01;;;;;;;12.80;2.20;;;10.10;99.90;;;;;;5037532;28;20048;-49
2022/12/20 11:20:29;;;;;;;11.88;1.85;;;10.10;99.90;;;;;;5039029;28;20096;-49
2022/12/20 11:22:56;;;;;;;8.88;1.88;;;10.10;99.90;;;;;;5036740;28;20045;-48
2022/12/20 11:25:23;;;;;;;12.57;1.73;;;10.10;99.90;;;;;;5045957;28;20037;-50
2022/12/20 11:27:50;;;;;;;8.13;2.03;;;10.20;99.90;;;;;;5044358;28;20099;-48
2022/12/20 11:30:17;;;;;;;10.73;2.17;;;10.10;99.90;;;;;;5044233;28;20079;-46
2022/12/20 11:32:44;;;;;;;12.93;2.20;;;10.20;99.90;;;;;;5038597;28;20420;-47
2022/12/20 11:35:14;;;;;;;11.88;3.13;;;10.20;99.90;;;;;;5043305;28;20476;-49
2022/12/20 11:37:41;;;;;;;10.68;1.90;;;10.20;99.90;;;;;;5039148;28;20041;-46
2022/12/20 11:40:09;;;;;;;14.20;3.05;;;10.20;99.90;;;;;;5041437;28;20084;-49
2022/12/20 11:42:36;;;;;;;11.50;2.35;;;10.20;99.90;;;;;;5042495;28;20107;-50
2022/12/20 11:45:03;;;;;;;11.70;2.05;;;10.20;99.90;;;;;;5039324;28;20052;-48
2022/12/20 11:47:35;;;;;;;15.80;2.25;;;10.20;99.90;;;;;;5046976;28;20457;-48
2022/12/20 11:50:02;;;;;;;14.88;2.40;;;10.20;99.90;;;;;;5054227;28;20037;-50
2022/12/20 11:52:29;;;;;;;9.63;2.78;;;10.20;99.90;;;;;;5045982;28;20064;-52
2022/12/20 11:54:56;;;;;;;15.50;2.55;;;10.20;99.90;;;;;;5044938;28;20477;-49
2022/12/20 11:57:22;;;;;;;12.73;2.10;;;10.20;99.90;;;;;;5050907;28;20087;-50
2022/12/20 11:59:49;;;;;;;17.35;2.47;;;10.20;99.90;;;;;;5046434;28;20107;-48
2022/12/20 12:02:16;;;;;;;14.73;2.25;;;10.20;99.90;;;;;;5040747;28;20041;-49
2022/12/20 12:04:43;;;;;;;14.80;2.97;;;10.20;99.90;;;;;;5050524;28;20084;-48
2022/12/20 12:07:10;;;;;;;13.32;2.53;;;10.20;99.90;;;;;;5039686;28;20144;-47
2022/12/20 12:09:37;;;;;;;14.73;2.50;;;10.20;99.90;;;;;;5041107;28;20037;-49
2022/12/20 12:12:04;;;;;;;16.77;2.78;;;10.20;99.90;;;;;;5041486;28;20060;-49
2022/12/20 12:14:34;;;;;;;18.67;2.67;;;10.20;99.90;;;;;;5045474;28;20092;-45
2022/12/20 12:17:01;;;;;;;16.90;3.03;;;10.20;99.90;;;;;;5047459;28;20396;-50
2022/12/20 12:19:28;;;;;;;16.42;2.80;;;10.30;99.90;;;;;;5042996;28;20033;-47
2022/12/20 12:21:55;;;;;;;14.57;2.25;;;10.30;99.90;;;;;;5048706;28;20042;-46
2022/12/20 12:24:22;;;;;;;16.92;2.90;;;10.30;99.90;;;;;;5050452;28;20037;-46
2022/12/20 12:26:49;;;;;;;14.85;2.97;;;10.30;99.90;;;;;;5043462;28;20041;-48
2022/12/20 12:29:16;;;;;;;14.15;2.65;;;10.30;99.90;;;;;;5050306;28;20041;-46
2022/12/20 12:31:42;;;;;;;15.82;3.05;;;10.30;99.90;;;;;;5047430;28;20036;-47
2022/12/20 12:34:09;;;;;;;17.85;3.28;;;10.30;99.90;;;;;;5047128;28;20042;-50
2022/12/20 12:36:36;;;;;;;20.50;3.40;;;10.30;99.90;;;;;;5045782;28;20455;-50
2022/12/20 12:39:03;;;;;;;18.13;3.85;;;10.30;99.90;;;;;;5043146;28;20443;-49
2022/12/20 12:41:30;;;;;;;21.13;3.88;;;10.30;99.90;;;;;;5043529;28;20068;-45
2022/12/20 12:43:56;;;;;;;18.48;3.33;;;10.30;99.90;;;;;;5040114;28;20048;-46
2022/12/20 12:46:23;;;;;;;16.88;3.08;;;10.30;99.90;;;;;;5046997;28;20041;-44
2022/12/20 12:48:51;;;;;;;20.08;3.83;;;10.30;99.90;;;;;;5041466;28;20029;-46